Earl Park, Indiana
Current Conditions -  °F | °C
As of 1:55 PM on Friday 31 Oct 2014 (Local Time) from KRZL Reporting Station
Light Snow Light Snow  
Wind Chill: 27°   Ceiling: 2200
Heat Index: 37°   Visibility: 7mi
Dew Point: 34°   Wind: 20mph
Humidity: 87%   Direction: 320°NW
Pressure: 30.06"   Gusts: 35mph
Location:  40.68°N, 87.41°W
Report Text: KRZL 311755Z AUTO 32017G30KT 7SM -SN SCT010 BKN022 OVC029 03/01 A3006 RMK AO2
Loading
Personal Weather Stations






























Interactive Weather Map
Tropical Storm Tracking
New forecast layout! Learn more

10-Day Weather Forecast

Advertisements
Track Severe Weather on mobile